Time;durP1;ratioP1;P1;durP2;ratioP2;P2;SDS_P1;SDS_P2;PMS_P1;PMS_P2;Temp;Humidity;BMP_temperature;BMP_pressure;BME280_temperature;BME280_humidity;BME280_pressure;Samples;Min_cycle;Max_cycle;Signal;HPM_P1;HPM_P2
2022/03/15 00:01:17;;;;;;;10.23;6.00;;;;;;;15.69;39.69;98425.19;5034956;28;20060;-26
2022/03/15 00:03:43;;;;;;;6.95;5.65;;;;;;;15.71;39.70;98427.47;5034935;28;20026;-26
2022/03/15 00:06:09;;;;;;;8.57;6.13;;;;;;;15.69;39.74;98422.44;5034900;28;20124;-26
2022/03/15 00:08:34;;;;;;;7.93;6.05;;;;;;;15.70;39.71;98425.97;5034999;28;20427;-25
2022/03/15 00:11:05;;;;;;;8.35;5.65;;;;;;;15.71;39.69;98419.28;5034835;28;20032;-26
2022/03/15 00:13:32;;;;;;;7.35;5.60;;;;;;;15.63;39.83;98432.28;5033435;28;20101;-26
2022/03/15 00:16:00;;;;;;;7.45;5.80;;;;;;;15.67;39.81;98422.09;5035093;28;20116;-25
2022/03/15 00:18:27;;;;;;;7.78;5.82;;;;;;;15.60;39.89;98435.06;5034890;28;20025;-25
2022/03/15 00:20:53;;;;;;;7.20;5.40;;;;;;;15.62;39.93;98432.69;5035348;28;20043;-26
2022/03/15 00:23:18;;;;;;;8.93;5.82;;;;;;;15.66;39.97;98436.94;5034398;28;20017;-26
2022/03/15 00:25:44;;;;;;;7.40;5.97;;;;;;;15.67;39.70;98437.72;5034843;28;20032;-26
2022/03/15 00:28:10;;;;;;;7.32;5.60;;;;;;;15.69;39.80;98435.34;5034743;28;20389;-26
2022/03/15 00:30:36;;;;;;;7.57;6.10;;;;;;;15.64;39.88;98435.78;5034544;28;20048;-26
2022/03/15 00:33:01;;;;;;;8.18;5.93;;;;;;;15.66;39.98;98439.69;5033212;28;20037;-25
2022/03/15 00:35:27;;;;;;;9.25;6.13;;;;;;;15.64;40.09;98435.78;5034471;28;20033;-26
2022/03/15 00:37:55;;;;;;;8.70;5.97;;;;;;;15.61;40.39;98433.88;5034657;28;20104;-25
2022/03/15 00:40:22;;;;;;;8.30;5.68;;;;;;;15.61;40.15;98442.09;5034654;28;20032;-25
2022/03/15 00:42:50;;;;;;;6.85;5.35;;;;;;;15.60;40.31;98432.31;5034536;28;20453;-26
2022/03/15 00:45:16;;;;;;;8.63;5.38;;;;;;;15.65;40.20;98438.13;5034312;28;20378;-26
2022/03/15 00:47:42;;;;;;;8.50;5.90;;;;;;;15.64;40.41;98438.53;5034033;28;20037;-25
2022/03/15 00:50:08;;;;;;;7.93;5.15;;;;;;;15.63;40.41;98437.75;5034184;28;20033;-26
2022/03/15 00:52:34;;;;;;;8.20;5.72;;;;;;;15.59;40.47;98436.25;5034278;28;20243;-26
2022/03/15 00:55:00;;;;;;;8.10;5.43;;;;;;;15.59;40.38;98428.03;5034125;28;20071;-25
2022/03/15 00:57:25;;;;;;;8.27;5.30;;;;;;;15.59;40.40;98433.50;5034027;28;20029;-26
2022/03/15 00:59:51;;;;;;;6.85;5.22;;;;;;;15.59;40.26;98436.25;5033753;28;20096;-27
2022/03/15 01:02:17;;;;;;;8.15;5.43;;;;;;;15.61;40.23;98444.81;5034100;28;20446;-25
2022/03/15 01:04:43;;;;;;;7.18;5.18;;;;;;;15.56;40.69;98442.56;5034995;28;20072;-26
2022/03/15 01:07:11;;;;;;;9.68;5.68;;;;;;;15.52;40.34;98448.03;5035472;28;20433;-26
2022/03/15 01:09:37;;;;;;;8.00;5.50;;;;;;;15.55;40.45;98441.00;5036067;28;20048;-25
2022/03/15 01:12:03;;;;;;;8.00;5.57;;;;;;;15.51;40.57;98441.00;5034738;28;20025;-25
2022/03/15 01:14:28;;;;;;;7.55;5.57;;;;;;;15.55;40.43;98439.03;5035840;28;20018;-26
2022/03/15 01:16:55;;;;;;;6.45;5.30;;;;;;;15.53;40.33;98441.38;5035349;28;20031;-25
2022/03/15 01:19:22;;;;;;;8.40;5.63;;;;;;;15.50;40.58;98439.47;5035758;28;20049;-26
2022/03/15 01:21:48;;;;;;;7.60;5.75;;;;;;;15.57;40.59;98438.63;5034402;28;20030;-26
2022/03/15 01:24:14;;;;;;;7.88;4.78;;;;;;;15.51;40.57;98438.28;5035589;28;20029;-26
2022/03/15 01:26:39;;;;;;;6.95;4.95;;;;;;;15.44;40.52;98435.63;5035469;28;20512;-25
2022/03/15 01:29:06;;;;;;;6.50;5.05;;;;;;;15.50;40.40;98439.47;5035763;28;20029;-26
2022/03/15 01:31:32;;;;;;;8.82;5.75;;;;;;;15.45;40.60;98440.69;5035450;28;20040;-26
2022/03/15 01:33:57;;;;;;;5.93;5.13;;;;;;;15.51;40.41;98449.22;5034136;28;20021;-26
2022/03/15 01:36:23;;;;;;;6.53;5.28;;;;;;;15.52;40.33;98444.53;5035298;28;20492;-25
2022/03/15 01:38:52;;;;;;;7.63;5.40;;;;;;;15.44;40.66;98447.34;5035433;28;20474;-26
2022/03/15 01:41:18;;;;;;;7.32;5.32;;;;;;;15.46;40.49;98438.72;5035168;28;20033;-25
2022/03/15 01:43:46;;;;;;;9.32;5.95;;;;;;;15.44;40.47;98438.38;5034096;28;20032;-25
2022/03/15 01:46:12;;;;;;;7.55;5.53;;;;;;;15.42;40.54;98436.06;5035188;28;20064;-25
2022/03/15 01:48:39;;;;;;;7.50;5.95;;;;;;;15.40;40.54;98454.81;5035202;28;20025;-25
2022/03/15 01:51:04;;;;;;;7.13;5.43;;;;;;;15.36;40.82;98456.03;5033931;28;20040;-27
2022/03/15 01:53:32;;;;;;;8.55;5.78;;;;;;;15.42;40.39;98454.41;5035057;28;20017;-25
2022/03/15 01:55:58;;;;;;;7.50;5.28;;;;;;;15.40;40.47;98463.03;5035075;28;20033;-26
2022/03/15 01:58:25;;;;;;;9.02;6.15;;;;;;;15.44;40.33;98468.44;5035586;28;20033;-26
2022/03/15 02:00:51;;;;;;;8.30;5.95;;;;;;;15.40;40.45;98460.28;5033621;28;20437;-26
2022/03/15 02:03:17;;;;;;;7.47;6.15;;;;;;;15.42;40.39;98465.34;5034681;28;20030;-25
2022/03/15 02:05:43;;;;;;;8.02;5.95;;;;;;;15.38;40.39;98459.91;5034852;28;20049;-26
2022/03/15 02:08:14;;;;;;;7.32;6.28;;;;;;;15.40;40.61;98463.03;5034666;28;20028;-26
2022/03/15 02:10:40;;;;;;;6.75;5.47;;;;;;;15.41;40.25;98445.44;5034126;28;20032;-26
2022/03/15 02:13:06;;;;;;;9.73;6.20;;;;;;;15.32;40.78;98453.34;5033355;28;20064;-25
2022/03/15 02:15:33;;;;;;;8.38;5.60;;;;;;;15.30;40.82;98446.75;5034651;28;20029;-25
2022/03/15 02:17:59;;;;;;;10.63;5.53;;;;;;;15.37;40.71;98447.44;5034589;28;20167;-25
2022/03/15 02:20:25;;;;;;;6.55;5.63;;;;;;;15.40;40.64;98452.09;5034522;28;20491;-26
2022/03/15 02:22:50;;;;;;;7.68;5.13;;;;;;;15.31;40.82;98445.56;5034485;28;20029;-25
2022/03/15 02:25:16;;;;;;;7.55;5.63;;;;;;;15.36;40.87;98445.88;5034419;28;20025;-25
2022/03/15 02:27:42;;;;;;;6.70;5.88;;;;;;;15.33;40.50;98449.41;5034374;28;20175;-25
2022/03/15 02:30:08;;;;;;;7.57;5.70;;;;;;;15.33;41.03;98452.16;5034414;28;20029;-25
2022/03/15 02:32:34;;;;;;;8.50;5.60;;;;;;;15.33;40.98;98451.41;5034358;28;20033;-26
2022/03/15 02:35:00;;;;;;;8.48;5.75;;;;;;;15.35;40.95;98447.06;5032883;28;20083;-26
2022/03/15 02:37:26;;;;;;;8.13;6.00;;;;;;;15.34;40.74;98445.50;5034425;28;20430;-25
2022/03/15 02:39:51;;;;;;;7.90;5.80;;;;;;;15.28;40.91;98438.94;5034212;28;20109;-25
2022/03/15 02:42:18;;;;;;;8.02;6.05;;;;;;;15.32;40.94;98445.16;5034177;28;20025;-25
2022/03/15 02:44:43;;;;;;;10.32;6.32;;;;;;;15.29;40.90;98445.97;5034062;28;20382;-26
2022/03/15 02:47:09;;;;;;;9.27;6.47;;;;;;;15.36;40.78;98437.66;5034381;28;20021;-25
2022/03/15 02:49:35;;;;;;;8.15;5.88;;;;;;;15.40;40.81;98456.78;5034101;28;20026;-25
2022/03/15 02:52:02;;;;;;;9.32;6.22;;;;;;;15.35;40.79;98455.25;5033953;28;20036;-26
2022/03/15 02:54:27;;;;;;;8.30;5.90;;;;;;;15.30;40.45;98455.72;5033787;28;20378;-25
2022/03/15 02:56:53;;;;;;;7.78;6.00;;;;;;;15.29;40.69;98456.91;5033984;28;20089;-25
2022/03/15 02:59:19;;;;;;;7.03;5.65;;;;;;;15.26;40.75;98446.78;5033985;28;20071;-26
2022/03/15 03:01:46;;;;;;;8.75;6.03;;;;;;;15.24;40.60;98454.59;5033834;28;20029;-26
2022/03/15 03:04:12;;;;;;;7.43;5.50;;;;;;;15.26;40.62;98452.25;5032514;28;20075;-26
2022/03/15 03:06:41;;;;;;;8.13;6.45;;;;;;;15.27;40.68;98447.56;5031766;28;20029;-26
2022/03/15 03:09:07;;;;;;;8.43;5.63;;;;;;;15.28;40.54;98455.34;5033404;28;20466;-26
2022/03/15 03:11:33;;;;;;;7.47;6.50;;;;;;;15.28;40.65;98438.94;5033512;28;20025;-26
2022/03/15 03:13:59;;;;;;;8.15;6.10;;;;;;;15.28;40.56;98451.84;5033708;28;20433;-25
2022/03/15 03:16:26;;;;;;;8.50;6.32;;;;;;;15.28;40.62;98449.09;5033468;28;20105;-26
2022/03/15 03:18:54;;;;;;;10.35;6.18;;;;;;;15.16;40.81;98447.69;5033632;28;20030;-25
2022/03/15 03:21:21;;;;;;;8.90;6.35;;;;;;;15.18;40.62;98439.84;5033168;28;20580;-25
2022/03/15 03:23:46;;;;;;;8.25;6.22;;;;;;;15.21;40.62;98440.97;5032057;28;20022;-25
2022/03/15 03:26:12;;;;;;;8.68;6.32;;;;;;;15.22;40.62;98435.09;5033452;28;20113;-25
2022/03/15 03:28:38;;;;;;;6.72;5.97;;;;;;;15.25;40.37;98439.75;5033398;28;20029;-26
2022/03/15 03:31:05;;;;;;;8.55;5.90;;;;;;;15.23;40.61;98439.38;5033494;28;20026;-26
2022/03/15 03:33:32;;;;;;;8.70;6.32;;;;;;;15.22;40.60;98442.53;5033343;28;20075;-26
2022/03/15 03:35:58;;;;;;;9.07;6.30;;;;;;;15.19;40.47;98444.13;5033454;28;20032;-25
2022/03/15 03:38:24;;;;;;;7.47;5.80;;;;;;;15.18;40.45;98445.31;5033160;28;20022;-25
2022/03/15 03:40:50;;;;;;;9.30;6.00;;;;;;;15.18;40.50;98445.31;5032069;28;20099;-26
2022/03/15 03:43:16;;;;;;;7.72;6.35;;;;;;;15.18;40.40;98442.59;5033243;28;20108;-25
2022/03/15 03:45:42;;;;;;;9.15;6.50;;;;;;;15.19;40.32;98435.16;5033287;28;20108;-25
2022/03/15 03:48:07;;;;;;;8.88;5.82;;;;;;;15.23;40.07;98444.84;5033300;28;20075;-25
2022/03/15 03:50:34;;;;;;;10.23;6.60;;;;;;;15.13;40.45;98444.97;5033246;28;20085;-25
2022/03/15 03:53:00;;;;;;;8.23;6.30;;;;;;;15.18;40.24;98433.59;5033090;28;20056;-25
2022/03/15 03:55:26;;;;;;;8.65;6.32;;;;;;;15.24;40.10;98446.41;5033276;28;20097;-26
2022/03/15 03:57:52;;;;;;;9.88;6.20;;;;;;;15.22;40.17;98451.50;5033007;28;20535;-25
2022/03/15 04:00:18;;;;;;;7.18;6.18;;;;;;;15.15;40.08;98446.13;5032997;28;20029;-25
2022/03/15 04:02:43;;;;;;;7.65;5.90;;;;;;;15.11;40.39;98445.38;5033292;28;20021;-25
2022/03/15 04:05:10;;;;;;;8.15;6.63;;;;;;;15.11;40.13;98448.13;5032792;28;20116;-25
2022/03/15 04:07:37;;;;;;;8.27;5.50;;;;;;;15.10;40.11;98444.59;5032997;28;20032;-26
2022/03/15 04:10:06;;;;;;;6.28;5.18;;;;;;;15.22;39.88;98453.47;5032942;28;20025;-25
2022/03/15 04:12:33;;;;;;;6.72;5.50;;;;;;;15.08;40.09;98441.50;5033229;28;20025;-26
2022/03/15 04:14:59;;;;;;;10.05;6.15;;;;;;;15.14;40.06;98450.03;5033010;28;20021;-26
2022/03/15 04:17:26;;;;;;;6.28;5.60;;;;;;;15.15;40.00;98442.63;5033060;28;20053;-26
2022/03/15 04:19:53;;;;;;;8.30;5.60;;;;;;;15.16;39.80;98444.16;5032867;28;20048;-26
2022/03/15 04:22:18;;;;;;;7.63;5.80;;;;;;;15.13;39.93;98453.19;5032897;28;20108;-26
2022/03/15 04:24:44;;;;;;;7.63;5.55;;;;;;;15.13;39.83;98440.28;5032778;28;20148;-26
2022/03/15 04:27:09;;;;;;;6.35;5.20;;;;;;;15.12;39.89;98446.94;5031725;28;20030;-26
2022/03/15 04:29:35;;;;;;;8.18;5.60;;;;;;;15.09;39.92;98447.75;5032885;28;20025;-25
2022/03/15 04:32:01;;;;;;;6.85;5.18;;;;;;;15.09;39.98;98448.53;5032821;28;20017;-26
2022/03/15 04:34:27;;;;;;;6.68;5.68;;;;;;;15.06;40.06;98448.56;5035480;28;20021;-25
2022/03/15 04:36:52;;;;;;;8.35;5.35;;;;;;;15.09;39.79;98442.28;5036474;28;20024;-25
2022/03/15 04:39:18;;;;;;;7.70;5.32;;;;;;;15.13;39.71;98445.75;5036596;28;20100;-26
2022/03/15 04:41:45;;;;;;;7.95;5.75;;;;;;;15.12;39.83;98446.16;5036325;28;20030;-25
2022/03/15 04:44:12;;;;;;;6.45;4.90;;;;;;;15.15;39.66;98442.63;5036188;28;20544;-25
2022/03/15 04:46:38;;;;;;;6.80;5.47;;;;;;;15.08;39.73;98441.50;5036373;28;20076;-26
2022/03/15 04:49:03;;;;;;;7.05;5.60;;;;;;;15.16;39.51;98442.22;5036363;28;20514;-26
2022/03/15 04:51:29;;;;;;;6.68;4.85;;;;;;;15.08;39.47;98441.50;5036197;28;20112;-26
2022/03/15 04:53:55;;;;;;;6.22;4.88;;;;;;;15.03;39.60;98446.66;5036315;28;20083;-26
2022/03/15 04:56:21;;;;;;;6.93;5.35;;;;;;;15.13;39.56;98445.75;5036219;28;20110;-26
2022/03/15 04:58:47;;;;;;;8.05;5.43;;;;;;;15.10;39.41;98447.34;5036003;28;20068;-26
2022/03/15 05:01:13;;;;;;;6.50;5.30;;;;;;;15.07;39.54;98450.91;5036133;28;20025;-26
2022/03/15 05:03:39;;;;;;;7.80;5.18;;;;;;;15.06;39.52;98448.56;5035870;28;20029;-25
2022/03/15 05:06:05;;;;;;;8.30;5.55;;;;;;;15.12;39.37;98452.41;5035901;28;20191;-26
2022/03/15 05:08:30;;;;;;;8.68;5.43;;;;;;;15.10;39.31;98452.03;5035878;28;20522;-25
2022/03/15 05:11:06;;;;;;;8.82;5.00;;;;;;;15.09;39.46;98451.25;5035874;28;20489;-25
2022/03/15 05:13:44;;;;;;;5.55;4.65;;;;;;;15.06;39.25;98454.81;5035903;28;20025;-26
2022/03/15 05:16:15;;;;;;;6.40;4.93;;;;;;;15.04;39.13;98457.19;5035806;28;20025;-26
2022/03/15 05:18:41;;;;;;;7.93;4.78;;;;;;;15.11;39.12;98456.31;5035992;28;20104;-26
2022/03/15 05:21:12;;;;;;;6.70;5.30;;;;;;;15.06;39.30;98446.63;5035717;28;20159;-25
2022/03/15 05:23:38;;;;;;;8.43;5.30;;;;;;;15.06;39.27;98449.34;5035452;28;20017;-25
2022/03/15 05:26:04;;;;;;;10.00;4.95;;;;;;;14.99;39.18;98446.69;5035879;28;20367;-25
2022/03/15 05:28:29;;;;;;;7.20;5.13;;;;;;;15.02;39.19;98445.09;5035618;28;20045;-26
2022/03/15 05:30:55;;;;;;;9.63;5.20;;;;;;;15.02;39.21;98448.59;5035445;28;20386;-25
2022/03/15 05:33:21;;;;;;;8.68;5.70;;;;;;;15.00;39.07;98450.19;5035493;28;20399;-26
2022/03/15 05:35:46;;;;;;;8.05;5.25;;;;;;;15.00;39.02;98445.50;5035622;28;20037;-25
2022/03/15 05:38:12;;;;;;;6.50;5.00;;;;;;;14.98;38.98;98449.81;5035344;28;20017;-25
2022/03/15 05:40:38;;;;;;;8.38;5.75;;;;;;;14.95;39.32;98453.38;5035263;28;20079;-25
2022/03/15 05:43:03;;;;;;;9.73;4.90;;;;;;;14.92;39.07;98452.22;5035656;28;20025;-26
2022/03/15 05:45:29;;;;;;;7.25;5.40;;;;;;;14.95;39.09;98447.91;5034178;28;20025;-25
2022/03/15 05:47:55;;;;;;;8.73;5.50;;;;;;;14.98;38.96;98453.31;5034961;28;20040;-27
2022/03/15 05:50:22;;;;;;;7.00;5.05;;;;;;;15.00;38.88;98455.66;5035253;28;20108;-26
2022/03/15 05:52:47;;;;;;;10.45;5.70;;;;;;;14.98;38.92;98455.28;5035240;28;20447;-25
2022/03/15 05:55:13;;;;;;;7.63;5.25;;;;;;;15.01;38.70;98459.94;5034981;28;20056;-25
2022/03/15 05:57:39;;;;;;;6.72;5.15;;;;;;;15.01;38.70;98455.25;5035065;28;20021;-26
2022/03/15 06:00:06;;;;;;;8.73;5.70;;;;;;;15.07;38.64;98461.06;5034812;28;20055;-25
2022/03/15 06:02:32;;;;;;;8.98;5.65;;;;;;;15.01;38.51;98470.88;5034961;28;20024;-25
2022/03/15 06:04:59;;;;;;;7.43;5.07;;;;;;;14.97;38.81;98472.84;5034771;28;20041;-26
2022/03/15 06:07:27;;;;;;;7.15;4.82;;;;;;;15.04;38.67;98468.09;5035114;28;20029;-26
2022/03/15 06:09:53;;;;;;;9.55;5.47;;;;;;;15.00;38.79;98469.31;5034927;28;20389;-26
2022/03/15 06:12:20;;;;;;;8.20;5.07;;;;;;;14.96;38.65;98472.06;5034798;28;20021;-25
2022/03/15 06:14:46;;;;;;;7.82;5.10;;;;;;;14.95;38.76;98473.28;5034858;28;20017;-25
2022/03/15 06:17:11;;;;;;;8.18;5.40;;;;;;;14.99;38.35;98473.22;5033441;28;20804;-26
2022/03/15 06:19:37;;;;;;;10.38;5.18;;;;;;;14.98;38.64;98474.41;5033249;28;20033;-26
2022/03/15 06:22:03;;;;;;;10.07;5.60;;;;;;;14.99;38.68;98481.44;5034579;28;20482;-26
2022/03/15 06:24:29;;;;;;;6.70;5.55;;;;;;;15.00;38.48;98477.50;5034576;28;20061;-26
2022/03/15 06:26:57;;;;;;;7.95;5.10;;;;;;;14.96;38.74;98487.72;5034213;28;20029;-25
2022/03/15 06:29:22;;;;;;;13.07;5.63;;;;;;;14.99;38.51;98487.66;5034384;28;20025;-25
2022/03/15 06:31:48;;;;;;;9.73;5.40;;;;;;;14.99;38.66;98489.63;5034401;28;20025;-25
2022/03/15 06:34:14;;;;;;;10.70;5.63;;;;;;;14.98;38.49;98499.00;5034517;28;20032;-26
2022/03/15 06:36:41;;;;;;;10.98;5.35;;;;;;;14.96;38.39;98499.41;5034440;28;20021;-25
2022/03/15 06:39:07;;;;;;;10.10;5.55;;;;;;;14.97;38.50;98500.19;5034479;28;20113;-25
2022/03/15 06:41:37;;;;;;;11.10;5.35;;;;;;;14.99;38.28;98492.34;5034026;28;20184;-25
2022/03/15 06:44:03;;;;;;;17.25;5.50;;;;;;;14.96;38.48;98502.13;5028356;28;20649;-26
2022/03/15 06:46:30;;;;;;;6.75;5.20;;;;;;;14.96;38.44;98501.38;5010860;28;20038;-25
2022/03/15 06:48:55;;;;;;;10.02;5.05;;;;;;;14.97;38.44;98503.69;5010457;28;20045;-26
2022/03/15 06:51:21;;;;;;;9.48;5.55;;;;;;;15.00;38.09;98513.81;5012395;28;20025;-25
2022/03/15 06:53:46;;;;;;;8.55;5.40;;;;;;;15.02;38.24;98505.22;5012329;28;20780;-25
2022/03/15 06:56:12;;;;;;;10.43;5.55;;;;;;;15.02;38.16;98508.72;5011852;28;20218;-25
2022/03/15 06:58:38;;;;;;;8.90;5.57;;;;;;;14.95;38.22;98506.06;5012107;28;20033;-25
2022/03/15 07:01:04;;;;;;;7.85;5.10;;;;;;;14.93;38.35;98511.16;5010809;28;20382;-25
2022/03/15 07:03:29;;;;;;;8.13;5.13;;;;;;;14.92;38.22;98519.75;5015795;28;20045;-26
2022/03/15 07:05:55;;;;;;;11.32;5.50;;;;;;;14.94;38.31;98517.41;5031841;28;20456;-26
2022/03/15 07:08:20;;;;;;;8.02;5.15;;;;;;;14.91;38.34;98520.94;5031664;28;20481;-26
2022/03/15 07:10:46;;;;;;;7.72;5.28;;;;;;;14.89;38.51;98521.34;5031833;28;20025;-26
2022/03/15 07:13:12;;;;;;;9.10;4.68;;;;;;;15.01;38.26;98530.97;5031709;28;20033;-25
2022/03/15 07:15:37;;;;;;;8.43;5.28;;;;;;;15.02;38.03;98530.59;5031650;28;20033;-26
2022/03/15 07:18:03;;;;;;;8.95;5.20;;;;;;;14.97;38.16;98531.00;5030297;28;20140;-25
2022/03/15 07:20:28;;;;;;;8.20;5.60;;;;;;;14.97;38.38;98536.47;5031471;28;20032;-25
2022/03/15 07:22:54;;;;;;;7.70;4.80;;;;;;;14.91;38.29;98540.06;5030229;28;20057;-26
2022/03/15 07:25:21;;;;;;;7.00;4.60;;;;;;;14.94;38.31;98533.78;5030827;28;20127;-25
2022/03/15 07:27:47;;;;;;;9.63;5.40;;;;;;;15.01;37.91;98536.44;5031585;28;20115;-25
2022/03/15 07:30:13;;;;;;;8.88;5.05;;;;;;;15.00;38.10;98537.63;5030175;28;20029;-25
2022/03/15 07:32:39;;;;;;;8.68;4.95;;;;;;;14.97;38.10;98533.75;5031360;28;20040;-25
2022/03/15 07:35:06;;;;;;;8.07;5.60;;;;;;;14.97;37.99;98538.44;5031320;28;20032;-25
2022/03/15 07:37:31;;;;;;;8.50;5.30;;;;;;;14.98;37.95;98531.78;5031494;28;20508;-25
2022/03/15 07:39:58;;;;;;;8.63;5.20;;;;;;;15.02;37.80;98533.31;5031084;28;20037;-26
2022/03/15 07:42:24;;;;;;;7.35;5.03;;;;;;;15.05;37.79;98539.94;5031398;28;20025;-25
2022/03/15 07:44:50;;;;;;;8.02;4.60;;;;;;;15.13;37.37;98546.88;5031029;28;20052;-25
2022/03/15 07:47:16;;;;;;;6.47;4.82;;;;;;;14.99;37.81;98544.28;5031357;28;20032;-25
2022/03/15 07:49:42;;;;;;;8.75;4.70;;;;;;;15.04;37.58;98546.56;5029699;28;20037;-25
2022/03/15 07:52:10;;;;;;;6.60;4.70;;;;;;;15.07;37.77;98545.78;5031274;28;20022;-25
2022/03/15 07:54:36;;;;;;;7.18;4.90;;;;;;;15.09;37.52;98535.97;5031224;28;20100;-25
2022/03/15 07:57:02;;;;;;;7.30;4.95;;;;;;;15.07;37.49;98548.50;5031105;28;20029;-26
2022/03/15 07:59:28;;;;;;;7.38;5.55;;;;;;;15.05;37.43;98551.63;5031331;28;20037;-25
2022/03/15 08:01:54;;;;;;;7.22;4.38;;;;;;;15.04;37.46;98549.31;5030803;28;20120;-26
2022/03/15 08:04:20;;;;;;;8.73;5.07;;;;;;;15.09;37.55;98551.59;5031033;28;20434;-26
2022/03/15 08:06:45;;;;;;;6.50;4.80;;;;;;;15.01;37.53;98552.84;5030751;28;20029;-26
2022/03/15 08:09:11;;;;;;;7.78;4.88;;;;;;;15.07;37.62;98543.81;5032471;28;20096;-25
2022/03/15 08:11:37;;;;;;;7.10;5.10;;;;;;;15.06;37.25;98555.94;5029965;28;20500;-25
2022/03/15 08:14:03;;;;;;;5.53;4.30;;;;;;;15.03;37.54;98558.69;5034074;28;20056;-26
2022/03/15 08:16:28;;;;;;;6.70;4.47;;;;;;;15.04;37.67;98554.78;5034036;28;20025;-26
2022/03/15 08:18:55;;;;;;;7.20;4.57;;;;;;;14.94;37.59;98566.56;5034078;28;20029;-25
2022/03/15 08:21:22;;;;;;;7.53;4.50;;;;;;;15.05;37.30;98561.78;5034813;28;20116;-25
2022/03/15 08:23:48;;;;;;;8.27;5.07;;;;;;;15.03;37.65;98559.47;5034972;28;20057;-25
2022/03/15 08:26:14;;;;;;;7.22;4.70;;;;;;;15.02;37.57;98563.38;5033367;28;20025;-25
2022/03/15 08:28:40;;;;;;;7.03;4.60;;;;;;;15.09;37.55;98557.84;5034728;28;20057;-26
2022/03/15 08:31:06;;;;;;;6.70;4.90;;;;;;;14.96;37.65;98558.75;5033422;28;20072;-25
2022/03/15 08:33:32;;;;;;;6.40;4.85;;;;;;;14.97;37.84;98554.81;5034775;28;20022;-25
2022/03/15 08:35:57;;;;;;;6.20;4.70;;;;;;;15.04;37.74;98560.25;5036636;28;20022;-25
2022/03/15 08:38:23;;;;;;;6.55;4.80;;;;;;;15.06;37.90;98555.94;5036358;28;20021;-26
2022/03/15 08:40:49;;;;;;;7.50;5.10;;;;;;;14.49;38.89;98563.00;5036542;28;20021;-25
2022/03/15 08:43:15;;;;;;;9.20;5.47;;;;;;;14.06;38.61;98568.69;5035948;28;20021;-26
2022/03/15 08:45:40;;;;;;;6.57;5.05;;;;;;;14.21;38.00;98562.00;5036114;28;20366;-26
2022/03/15 08:48:07;;;;;;;7.05;5.10;;;;;;;14.47;37.60;98560.66;5036532;28;20022;-25
2022/03/15 08:50:33;;;;;;;7.35;4.88;;;;;;;14.71;37.34;98562.44;5036362;28;20025;-25
2022/03/15 08:52:58;;;;;;;8.00;4.97;;;;;;;14.81;37.33;98562.78;5036151;28;20049;-25
2022/03/15 08:55:26;;;;;;;6.85;5.57;;;;;;;14.83;37.44;98565.88;5036386;28;20026;-25
2022/03/15 08:57:51;;;;;;;6.05;4.45;;;;;;;14.82;37.44;98567.06;5036193;28;20520;-25
2022/03/15 09:00:17;;;;;;;7.15;4.32;;;;;;;14.76;37.69;98563.19;5036045;28;20112;-27
2022/03/15 09:02:43;;;;;;;6.93;4.35;;;;;;;14.65;37.98;98563.28;5036333;28;20108;-25
2022/03/15 09:05:10;;;;;;;6.40;4.22;;;;;;;14.78;37.41;98556.16;5035883;28;20133;-26
2022/03/15 09:07:36;;;;;;;7.78;4.60;;;;;;;14.90;37.45;98563.09;5035907;28;20017;-26
2022/03/15 09:10:03;;;;;;;9.60;4.43;;;;;;;14.82;37.68;98565.13;5035905;28;20029;-26
2022/03/15 09:12:28;;;;;;;7.32;4.63;;;;;;;14.94;37.45;98561.13;5035859;28;20406;-25
2022/03/15 09:14:54;;;;;;;6.60;4.38;;;;;;;14.95;37.40;98557.19;5035922;28;20021;-25
2022/03/15 09:17:20;;;;;;;6.28;4.43;;;;;;;14.93;37.74;98562.28;5035877;28;20036;-25
2022/03/15 09:19:45;;;;;;;5.90;4.18;;;;;;;14.84;37.80;98553.75;5035656;28;20037;-26
2022/03/15 09:22:11;;;;;;;7.47;4.30;;;;;;;14.90;38.06;98557.63;5035720;28;20127;-26
2022/03/15 09:24:37;;;;;;;5.68;4.22;;;;;;;14.73;38.73;98554.63;5035439;28;20029;-26
2022/03/15 09:27:04;;;;;;;6.18;4.40;;;;;;;14.80;38.51;98559.28;5035643;28;20421;-26
2022/03/15 09:29:30;;;;;;;6.90;4.68;;;;;;;14.78;38.47;98566.31;5035891;28;20025;-26
2022/03/15 09:31:56;;;;;;;6.60;4.65;;;;;;;14.77;38.70;98551.09;5035302;28;20025;-25
2022/03/15 09:34:22;;;;;;;7.32;4.80;;;;;;;14.57;39.23;98562.56;5034306;28;20108;-26
2022/03/15 09:36:49;;;;;;;8.80;4.40;;;;;;;14.68;39.14;98567.94;5041675;28;20052;-25
2022/03/15 09:39:15;;;;;;;5.63;4.70;;;;;;;14.71;39.17;98554.25;5055297;28;20033;-25
2022/03/15 09:41:41;;;;;;;9.07;5.18;;;;;;;14.86;39.11;98554.13;5055213;28;20484;-26
2022/03/15 09:44:10;;;;;;;9.95;6.18;;;;;;;14.30;40.65;98556.84;5054947;28;20029;-25
2022/03/15 09:46:41;;;;;;;7.78;5.32;;;;;;;14.63;39.73;98543.78;5054596;28;20349;-26
2022/03/15 09:49:08;;;;;;;7.25;5.80;;;;;;;13.81;42.24;98546.97;5053697;28;20021;-26
2022/03/15 09:51:35;;;;;;;10.95;6.25;;;;;;;14.27;41.36;98548.69;5054551;28;20032;-26
2022/03/15 09:54:03;;;;;;;9.15;5.97;;;;;;;14.59;40.40;98541.06;5055112;28;20020;-26
2022/03/15 09:56:29;;;;;;;9.93;5.40;;;;;;;14.58;40.06;98552.41;5044740;28;20033;-26
2022/03/15 09:58:55;;;;;;;9.63;5.45;;;;;;;14.43;40.77;98540.03;5033239;28;20035;-26
2022/03/15 10:01:20;;;;;;;9.38;5.53;;;;;;;14.47;40.43;98541.56;5033254;28;20022;-27
2022/03/15 10:03:47;;;;;;;8.85;5.13;;;;;;;14.59;40.23;98538.34;5034812;28;20109;-27
2022/03/15 10:06:14;;;;;;;9.07;5.72;;;;;;;14.63;39.88;98541.06;5034586;28;20497;-26
2022/03/15 10:08:40;;;;;;;8.80;5.50;;;;;;;14.58;40.25;98530.56;5035024;28;20036;-26
2022/03/15 10:11:07;;;;;;;7.18;4.90;;;;;;;14.65;40.03;98531.28;5033502;28;20428;-26
2022/03/15 10:13:33;;;;;;;9.82;5.35;;;;;;;14.79;39.49;98524.16;5034820;28;20032;-26
2022/03/15 10:16:00;;;;;;;9.20;4.50;;;;;;;14.86;39.23;98521.34;5034691;28;20029;-27
2022/03/15 10:18:27;;;;;;;10.05;5.43;;;;;;;14.72;40.34;98524.97;5034638;28;20447;-26
2022/03/15 10:20:53;;;;;;;8.48;4.70;;;;;;;14.70;40.08;98530.09;5034889;28;20025;-26
2022/03/15 10:23:24;;;;;;;6.55;4.75;;;;;;;14.84;39.47;98518.25;5034459;28;20029;-27
2022/03/15 10:25:53;;;;;;;9.55;5.72;;;;;;;14.65;40.15;98519.59;5034779;28;20025;-26
2022/03/15 10:28:19;;;;;;;8.77;6.13;;;;;;;14.65;39.85;98517.63;5034523;28;20501;-26
2022/03/15 10:30:46;;;;;;;7.80;4.40;;;;;;;14.89;39.23;98523.28;5034154;28;20108;-27
2022/03/15 10:33:15;;;;;;;6.57;4.30;;;;;;;14.83;39.43;98516.72;5032525;28;20029;-26
2022/03/15 10:35:45;;;;;;;6.30;4.97;;;;;;;14.73;39.64;98512.88;5032237;28;20030;-26
2022/03/15 10:38:12;;;;;;;11.15;7.07;;;;;;;14.76;39.67;98517.53;5033885;28;20025;-26
2022/03/15 10:40:44;;;;;;;9.85;5.78;;;;;;;14.84;39.45;98502.63;5034258;28;20028;-27
2022/03/15 10:43:23;;;;;;;9.43;5.97;;;;;;;14.90;39.29;98509.22;5034244;28;20070;-26
2022/03/15 10:45:56;;;;;;;8.02;5.28;;;;;;;14.87;39.38;98511.97;5034444;28;20368;-27
2022/03/15 10:48:25;;;;;;;11.13;6.20;;;;;;;14.84;39.28;98510.06;5034096;28;20497;-26
2022/03/15 10:50:56;;;;;;;9.88;5.45;;;;;;;14.61;39.72;98508.69;5034326;28;20051;-26
2022/03/15 10:53:36;;;;;;;14.10;6.25;;;;;;;14.72;39.29;98501.19;5032713;28;20029;-26
2022/03/15 10:56:23;;;;;;;7.68;4.95;;;;;;;14.76;39.68;98508.56;5033901;28;20056;-25
2022/03/15 10:59:04;;;;;;;8.95;5.30;;;;;;;14.83;39.38;98512.03;5033976;28;20382;-26
2022/03/15 11:01:38;;;;;;;8.30;5.13;;;;;;;14.93;39.07;98488.53;5032708;28;20160;-26
2022/03/15 11:04:11;;;;;;;10.23;5.20;;;;;;;14.91;38.91;98499.06;5033721;28;20359;-26
2022/03/15 11:06:41;;;;;;;9.07;5.57;;;;;;;14.90;39.09;98495.56;5033614;28;20037;-26
2022/03/15 11:09:25;;;;;;;8.18;4.75;;;;;;;15.01;38.96;98487.25;5033788;28;20017;-26
2022/03/15 11:12:01;;;;;;;9.23;4.80;;;;;;;15.05;38.85;98477.09;5033713;28;20040;-26
2022/03/15 11:14:47;;;;;;;8.88;5.07;;;;;;;15.01;38.74;98468.13;5033718;28;20017;-26
2022/03/15 11:17:15;;;;;;;6.10;4.80;;;;;;;14.90;39.22;98467.47;5033983;28;20021;-26
2022/03/15 11:19:45;;;;;;;10.13;4.60;;;;;;;14.91;39.66;98466.28;5033466;28;20021;-27
2022/03/15 11:22:13;;;;;;;8.35;4.90;;;;;;;14.88;39.51;98458.91;5033618;28;20100;-26
2022/03/15 11:24:43;;;;;;;6.93;4.78;;;;;;;14.90;39.50;98454.59;5033578;28;20021;-26
2022/03/15 11:27:14;;;;;;;7.85;4.75;;;;;;;15.13;39.14;98456.69;5033666;28;20025;-26
2022/03/15 11:29:42;;;;;;;8.52;5.05;;;;;;;14.90;39.47;98456.53;5033376;28;20190;-27